sensor_id;sensor_type;location;lat;lon;timestamp;pressure;altitude;pressure_sealevel;temperature;humidity
72359;BME280;60317;48.880;-0.862;2022-08-18T00:01:02;100176.19;;;21.95;63.74
72359;BME280;60317;48.880;-0.862;2022-08-18T00:03:29;100176.03;;;21.97;63.50
72359;BME280;60317;48.880;-0.862;2022-08-18T00:06:16;100170.66;;;21.97;63.69
72359;BME280;60317;48.880;-0.862;2022-08-18T00:08:44;100166.13;;;21.97;63.88
72359;BME280;60317;48.880;-0.862;2022-08-18T00:11:11;100167.97;;;21.97;63.89
72359;BME280;60317;48.880;-0.862;2022-08-18T00:13:37;100170.66;;;21.97;63.81
72359;BME280;60317;48.880;-0.862;2022-08-18T00:16:04;100178.59;;;21.98;63.89
72359;BME280;60317;48.880;-0.862;2022-08-18T00:18:31;100183.13;;;21.98;63.89
72359;BME280;60317;48.880;-0.862;2022-08-18T00:20:57;100184.09;;;21.97;64.04
72359;BME280;60317;48.880;-0.862;2022-08-18T00:23:24;100181.41;;;21.97;64.20
72359;BME280;60317;48.880;-0.862;2022-08-18T00:25:53;100186.78;;;21.97;64.21
72359;BME280;60317;48.880;-0.862;2022-08-18T00:28:20;100177.75;;;21.98;64.31
72359;BME280;60317;48.880;-0.862;2022-08-18T00:30:49;100178.72;;;21.97;64.30
72359;BME280;60317;48.880;-0.862;2022-08-18T00:33:19;100177.88;;;21.96;64.48
72359;BME280;60317;48.880;-0.862;2022-08-18T00:35:46;100186.13;;;21.95;64.62
72359;BME280;60317;48.880;-0.862;2022-08-18T00:38:12;100183.44;;;21.95;64.58
72359;BME280;60317;48.880;-0.862;2022-08-18T00:40:54;100186.78;;;21.97;64.50
72359;BME280;60317;48.880;-0.862;2022-08-18T00:43:25;100197.56;;;21.97;64.31
72359;BME280;60317;48.880;-0.862;2022-08-18T00:45:54;100193.03;;;21.97;64.13
72359;BME280;60317;48.880;-0.862;2022-08-18T00:48:21;100197.72;;;21.95;64.32
72359;BME280;60317;48.880;-0.862;2022-08-18T00:50:53;100203.78;;;21.97;64.19
72359;BME280;60317;48.880;-0.862;2022-08-18T00:53:24;100205.50;;;21.98;64.35
72359;BME280;60317;48.880;-0.862;2022-08-18T00:55:54;100199.28;;;21.98;64.36
72359;BME280;60317;48.880;-0.862;2022-08-18T00:58:26;100195.72;;;21.97;64.34
72359;BME280;60317;48.880;-0.862;2022-08-18T01:00:54;100192.19;;;21.97;64.44
72359;BME280;60317;48.880;-0.862;2022-08-18T01:03:21;100194.75;;;21.98;64.49
72359;BME280;60317;48.880;-0.862;2022-08-18T01:05:55;100191.19;;;21.98;64.45
72359;BME280;60317;48.880;-0.862;2022-08-18T01:08:23;100195.72;;;21.97;64.52
72359;BME280;60317;48.880;-0.862;2022-08-18T01:10:56;100199.28;;;21.98;64.49
72359;BME280;60317;48.880;-0.862;2022-08-18T01:13:26;100198.41;;;21.97;64.57
72359;BME280;60317;48.880;-0.862;2022-08-18T01:15:52;100193.91;;;21.98;64.62
72359;BME280;60317;48.880;-0.862;2022-08-18T01:18:20;100192.88;;;21.99;64.35
72359;BME280;60317;48.880;-0.862;2022-08-18T01:20:52;100192.88;;;21.99;64.30
72359;BME280;60317;48.880;-0.862;2022-08-18T01:23:22;100195.59;;;21.99;64.53
72359;BME280;60317;48.880;-0.862;2022-08-18T01:25:50;100189.34;;;21.98;64.62
72359;BME280;60317;48.880;-0.862;2022-08-18T01:28:18;100196.44;;;21.99;64.32
72359;BME280;60317;48.880;-0.862;2022-08-18T01:30:47;100201.81;;;21.99;64.45
72359;BME280;60317;48.880;-0.862;2022-08-18T01:33:15;100194.75;;;21.98;64.47
72359;BME280;60317;48.880;-0.862;2022-08-18T01:35:43;100192.03;;;21.98;64.52
72359;BME280;60317;48.880;-0.862;2022-08-18T01:38:10;100193.91;;;21.98;64.59
72359;BME280;60317;48.880;-0.862;2022-08-18T01:40:38;100192.03;;;21.98;64.42
72359;BME280;60317;48.880;-0.862;2022-08-18T01:43:25;100198.28;;;21.99;64.72
72359;BME280;60317;48.880;-0.862;2022-08-18T01:45:51;100192.88;;;21.99;64.65
72359;BME280;60317;48.880;-0.862;2022-08-18T01:48:18;100199.28;;;21.98;64.58
72359;BME280;60317;48.880;-0.862;2022-08-18T01:50:44;100207.19;;;21.99;64.52
72359;BME280;60317;48.880;-0.862;2022-08-18T01:53:11;100207.19;;;21.99;64.45
72359;BME280;60317;48.880;-0.862;2022-08-18T01:55:40;100214.25;;;22.00;64.58
72359;BME280;60317;48.880;-0.862;2022-08-18T01:58:07;100207.19;;;21.99;64.57
72359;BME280;60317;48.880;-0.862;2022-08-18T02:00:33;100201.81;;;21.99;64.50
72359;BME280;60317;48.880;-0.862;2022-08-18T02:03:00;100197.25;;;22.00;64.62
72359;BME280;60317;48.880;-0.862;2022-08-18T02:05:32;100200.97;;;21.99;64.64
72359;BME280;60317;48.880;-0.862;2022-08-18T02:07:59;100209.88;;;21.99;64.45
72359;BME280;60317;48.880;-0.862;2022-08-18T02:10:26;100208.19;;;21.98;64.75
72359;BME280;60317;48.880;-0.862;2022-08-18T02:12:54;100211.72;;;21.99;64.50
72359;BME280;60317;48.880;-0.862;2022-08-18T02:15:20;100209.03;;;21.99;64.64
72359;BME280;60317;48.880;-0.862;2022-08-18T02:17:47;100200.97;;;21.99;64.60
72359;BME280;60317;48.880;-0.862;2022-08-18T02:20:16;100202.66;;;22.00;64.54
72359;BME280;60317;48.880;-0.862;2022-08-18T02:22:43;100206.34;;;21.99;64.75
72359;BME280;60317;48.880;-0.862;2022-08-18T02:25:11;100209.03;;;21.99;64.79
72359;BME280;60317;48.880;-0.862;2022-08-18T02:27:38;100212.72;;;21.98;64.64
72359;BME280;60317;48.880;-0.862;2022-08-18T02:30:10;100213.56;;;21.98;64.79
72359;BME280;60317;48.880;-0.862;2022-08-18T02:32:37;100213.41;;;22.00;64.62
72359;BME280;60317;48.880;-0.862;2022-08-18T02:35:05;100206.34;;;21.99;64.49
72359;BME280;60317;48.880;-0.862;2022-08-18T02:37:35;100207.19;;;21.99;64.45
72359;BME280;60317;48.880;-0.862;2022-08-18T02:40:02;100214.41;;;21.99;64.42
72359;BME280;60317;48.880;-0.862;2022-08-18T02:42:29;100215.25;;;21.99;64.32
72359;BME280;60317;48.880;-0.862;2022-08-18T02:44:56;100225.84;;;22.01;64.38
72359;BME280;60317;48.880;-0.862;2022-08-18T02:47:23;100219.81;;;21.99;64.55
72359;BME280;60317;48.880;-0.862;2022-08-18T02:49:50;100218.78;;;22.00;64.51
72359;BME280;60317;48.880;-0.862;2022-08-18T02:52:16;100212.56;;;21.99;64.23
72359;BME280;60317;48.880;-0.862;2022-08-18T02:54:43;100214.25;;;22.00;64.23
72359;BME280;60317;48.880;-0.862;2022-08-18T02:57:11;100217.09;;;21.99;64.21
72359;BME280;60317;48.880;-0.862;2022-08-18T02:59:39;100213.41;;;22.00;64.24
72359;BME280;60317;48.880;-0.862;2022-08-18T03:02:08;100213.41;;;22.00;64.07
72359;BME280;60317;48.880;-0.862;2022-08-18T03:04:36;100207.19;;;21.99;64.12
72359;BME280;60317;48.880;-0.862;2022-08-18T03:07:05;100217.09;;;21.99;64.08
72359;BME280;60317;48.880;-0.862;2022-08-18T03:09:32;100207.34;;;21.98;64.16
72359;BME280;60317;48.880;-0.862;2022-08-18T03:12:00;100215.41;;;21.98;63.95
72359;BME280;60317;48.880;-0.862;2022-08-18T03:14:27;100206.47;;;21.97;63.84
72359;BME280;60317;48.880;-0.862;2022-08-18T03:16:53;100212.72;;;21.98;63.84
72359;BME280;60317;48.880;-0.862;2022-08-18T03:19:22;100214.53;;;21.97;63.83
72359;BME280;60317;48.880;-0.862;2022-08-18T03:21:50;100213.72;;;21.97;63.90
72359;BME280;60317;48.880;-0.862;2022-08-18T03:24:18;100212.03;;;21.96;63.72
72359;BME280;60317;48.880;-0.862;2022-08-18T03:26:50;100216.69;;;21.93;63.63
72359;BME280;60317;48.880;-0.862;2022-08-18T03:29:17;100206.09;;;21.92;63.71
72359;BME280;60317;48.880;-0.862;2022-08-18T03:31:44;100209.91;;;21.89;63.58
72359;BME280;60317;48.880;-0.862;2022-08-18T03:34:11;100218.00;;;21.89;63.55
72359;BME280;60317;48.880;-0.862;2022-08-18T03:36:38;100225.38;;;21.87;63.63
72359;BME280;60317;48.880;-0.862;2022-08-18T03:39:08;100220.97;;;21.86;63.53
72359;BME280;60317;48.880;-0.862;2022-08-18T03:41:36;100226.34;;;21.86;63.59
72359;BME280;60317;48.880;-0.862;2022-08-18T03:44:23;100220.97;;;21.86;63.51
72359;BME280;60317;48.880;-0.862;2022-08-18T03:46:50;100227.06;;;21.88;63.31
72359;BME280;60317;48.880;-0.862;2022-08-18T03:49:17;100224.53;;;21.87;63.49
72359;BME280;60317;48.880;-0.862;2022-08-18T03:51:45;100223.66;;;21.86;63.40
72359;BME280;60317;48.880;-0.862;2022-08-18T03:54:14;100210.22;;;21.86;63.59
72359;BME280;60317;48.880;-0.862;2022-08-18T03:56:42;100217.31;;;21.87;63.49
72359;BME280;60317;48.880;-0.862;2022-08-18T03:59:12;100227.06;;;21.88;63.50
72359;BME280;60317;48.880;-0.862;2022-08-18T04:01:41;100228.06;;;21.87;63.56
72359;BME280;60317;48.880;-0.862;2022-08-18T04:04:10;100226.22;;;21.88;63.47
72359;BME280;60317;48.880;-0.862;2022-08-18T04:06:41;100214.63;;;21.87;63.38
72359;BME280;60317;48.880;-0.862;2022-08-18T04:09:11;100212.91;;;21.86;63.65
72359;BME280;60317;48.880;-0.862;2022-08-18T04:11:40;100208.53;;;21.85;63.59
72359;BME280;60317;48.880;-0.862;2022-08-18T04:14:08;100208.53;;;21.85;63.70
72359;BME280;60317;48.880;-0.862;2022-08-18T04:16:35;100205.00;;;21.85;63.75
72359;BME280;60317;48.880;-0.862;2022-08-18T04:19:02;100203.31;;;21.84;64.03
72359;BME280;60317;48.880;-0.862;2022-08-18T04:21:30;100199.06;;;21.81;63.95
72359;BME280;60317;48.880;-0.862;2022-08-18T04:23:57;100199.91;;;21.82;64.04
72359;BME280;60317;48.880;-0.862;2022-08-18T04:26:23;100198.91;;;21.83;64.00
72359;BME280;60317;48.880;-0.862;2022-08-18T04:28:51;100196.22;;;21.83;64.02
72359;BME280;60317;48.880;-0.862;2022-08-18T04:31:17;100197.22;;;21.82;64.03
72359;BME280;60317;48.880;-0.862;2022-08-18T04:33:44;100204.44;;;21.81;64.16
72359;BME280;60317;48.880;-0.862;2022-08-18T04:36:12;100214.19;;;21.82;64.21
72359;BME280;60317;48.880;-0.862;2022-08-18T04:38:46;100213.53;;;21.80;64.17
72359;BME280;60317;48.880;-0.862;2022-08-18T04:41:13;100216.06;;;21.82;64.22
72359;BME280;60317;48.880;-0.862;2022-08-18T04:43:40;100216.06;;;21.82;64.19
72359;BME280;60317;48.880;-0.862;2022-08-18T04:46:07;100219.59;;;21.82;64.12
72359;BME280;60317;48.880;-0.862;2022-08-18T04:48:37;100221.59;;;21.80;64.45
72359;BME280;60317;48.880;-0.862;2022-08-18T04:51:05;100223.44;;;21.80;64.33
72359;BME280;60317;48.880;-0.862;2022-08-18T04:53:32;100226.97;;;21.80;64.58
72359;BME280;60317;48.880;-0.862;2022-08-18T04:55:59;100231.34;;;21.81;64.42
72359;BME280;60317;48.880;-0.862;2022-08-18T04:58:25;100225.25;;;21.79;64.59
72359;BME280;60317;48.880;-0.862;2022-08-18T05:00:56;100224.56;;;21.77;64.63
72359;BME280;60317;48.880;-0.862;2022-08-18T05:03:25;100230.78;;;21.78;64.79
72359;BME280;60317;48.880;-0.862;2022-08-18T05:05:52;100234.31;;;21.78;64.55
72359;BME280;60317;48.880;-0.862;2022-08-18T05:08:18;100236.19;;;21.78;64.65
72359;BME280;60317;48.880;-0.862;2022-08-18T05:10:45;100237.03;;;21.78;64.69
72359;BME280;60317;48.880;-0.862;2022-08-18T05:13:11;100250.34;;;21.80;64.66
72359;BME280;60317;48.880;-0.862;2022-08-18T05:15:38;100244.09;;;21.79;64.74
72359;BME280;60317;48.880;-0.862;2022-08-18T05:18:26;100249.47;;;21.79;64.73
72359;BME280;60317;48.880;-0.862;2022-08-18T05:20:54;100255.72;;;21.80;64.77
72359;BME280;60317;48.880;-0.862;2022-08-18T05:23:22;100249.47;;;21.79;64.83
72359;BME280;60317;48.880;-0.862;2022-08-18T05:25:49;100251.19;;;21.80;64.83
72359;BME280;60317;48.880;-0.862;2022-08-18T05:28:18;100260.22;;;21.79;64.75
72359;BME280;60317;48.880;-0.862;2022-08-18T05:30:44;100255.72;;;21.80;64.88
72359;BME280;60317;48.880;-0.862;2022-08-18T05:33:11;100254.84;;;21.79;64.83
72359;BME280;60317;48.880;-0.862;2022-08-18T05:35:43;100256.69;;;21.79;64.93
72359;BME280;60317;48.880;-0.862;2022-08-18T05:38:23;100257.69;;;21.78;64.75
72359;BME280;60317;48.880;-0.862;2022-08-18T05:41:03;100255.84;;;21.78;64.96
72359;BME280;60317;48.880;-0.862;2022-08-18T05:43:31;100256.69;;;21.79;64.85
72359;BME280;60317;48.880;-0.862;2022-08-18T05:45:59;100261.22;;;21.78;64.94
72359;BME280;60317;48.880;-0.862;2022-08-18T05:48:26;100265.75;;;21.78;65.02
72359;BME280;60317;48.880;-0.862;2022-08-18T05:50:55;100264.94;;;21.77;65.01
72359;BME280;60317;48.880;-0.862;2022-08-18T05:53:22;100272.00;;;21.78;65.10
72359;BME280;60317;48.880;-0.862;2022-08-18T05:55:58;100268.47;;;21.78;65.08
72359;BME280;60317;48.880;-0.862;2022-08-18T05:58:32;100274.69;;;21.78;65.07
72359;BME280;60317;48.880;-0.862;2022-08-18T06:01:02;100287.13;;;21.79;65.16
72359;BME280;60317;48.880;-0.862;2022-08-18T06:03:33;100289.13;;;21.77;65.18
72359;BME280;60317;48.880;-0.862;2022-08-18T06:06:17;100286.28;;;21.79;65.26
72359;BME280;60317;48.880;-0.862;2022-08-18T06:08:49;100282.75;;;21.78;65.27
72359;BME280;60317;48.880;-0.862;2022-08-18T06:11:17;100293.50;;;21.78;65.06
72359;BME280;60317;48.880;-0.862;2022-08-18T06:13:48;100303.28;;;21.79;65.25
72359;BME280;60317;48.880;-0.862;2022-08-18T06:16:21;100297.03;;;21.79;65.28
72359;BME280;60317;48.880;-0.862;2022-08-18T06:18:57;100295.34;;;21.78;65.31
72359;BME280;60317;48.880;-0.862;2022-08-18T06:21:35;100300.75;;;21.78;65.35
72359;BME280;60317;48.880;-0.862;2022-08-18T06:24:10;100298.88;;;21.78;65.47
72359;BME280;60317;48.880;-0.862;2022-08-18T06:26:47;100297.03;;;21.79;65.26
72359;BME280;60317;48.880;-0.862;2022-08-18T06:29:35;100300.56;;;21.79;65.48
72359;BME280;60317;48.880;-0.862;2022-08-18T06:32:10;100297.88;;;21.79;65.27
72359;BME280;60317;48.880;-0.862;2022-08-18T06:34:45;100299.59;;;21.80;65.35
72359;BME280;60317;48.880;-0.862;2022-08-18T06:37:25;100294.22;;;21.80;65.46
72359;BME280;60317;48.880;-0.862;2022-08-18T06:39:55;100301.28;;;21.81;65.38
72359;BME280;60317;48.880;-0.862;2022-08-18T06:42:25;100308.34;;;21.82;65.22
72359;BME280;60317;48.880;-0.862;2022-08-18T06:44:57;100302.28;;;21.80;65.38
72359;BME280;60317;48.880;-0.862;2022-08-18T06:47:33;100313.91;;;21.81;65.37
72359;BME280;60317;48.880;-0.862;2022-08-18T06:50:07;100303.28;;;21.79;65.55
72359;BME280;60317;48.880;-0.862;2022-08-18T06:52:39;100309.53;;;21.80;65.29
72359;BME280;60317;48.880;-0.862;2022-08-18T06:55:18;100313.75;;;21.82;65.23
72359;BME280;60317;48.880;-0.862;2022-08-18T06:57:58;100310.22;;;21.82;65.26
72359;BME280;60317;48.880;-0.862;2022-08-18T07:00:28;100312.06;;;21.81;65.31
72359;BME280;60317;48.880;-0.862;2022-08-18T07:03:00;100311.91;;;21.83;65.36
72359;BME280;60317;48.880;-0.862;2022-08-18T07:05:31;100316.44;;;21.82;65.22
72359;BME280;60317;48.880;-0.862;2022-08-18T07:08:12;100318.44;;;21.80;65.25
72359;BME280;60317;48.880;-0.862;2022-08-18T07:10:41;100319.41;;;21.79;64.92
72359;BME280;60317;48.880;-0.862;2022-08-18T07:13:16;100324.78;;;21.79;65.02
72359;BME280;60317;48.880;-0.862;2022-08-18T07:15:44;100326.50;;;21.80;64.93
72359;BME280;60317;48.880;-0.862;2022-08-18T07:18:12;100324.78;;;21.79;64.99
72359;BME280;60317;48.880;-0.862;2022-08-18T07:20:42;100328.34;;;21.80;64.67
72359;BME280;60317;48.880;-0.862;2022-08-18T07:23:21;100323.81;;;21.80;65.08
72359;BME280;60317;48.880;-0.862;2022-08-18T07:25:57;100321.81;;;21.82;64.79
72359;BME280;60317;48.880;-0.862;2022-08-18T07:28:29;100320.28;;;21.80;64.82
72359;BME280;60317;48.880;-0.862;2022-08-18T07:31:13;100331.88;;;21.80;64.78
72359;BME280;60317;48.880;-0.862;2022-08-18T07:33:49;100337.28;;;21.80;64.68
72359;BME280;60317;48.880;-0.862;2022-08-18T07:36:16;100331.88;;;21.80;64.68
72359;BME280;60317;48.880;-0.862;2022-08-18T07:38:50;100337.09;;;21.82;64.89
72359;BME280;60317;48.880;-0.862;2022-08-18T07:41:19;100338.69;;;21.75;65.25
72359;BME280;60317;48.880;-0.862;2022-08-18T07:43:56;100352.00;;;21.76;65.25
72359;BME280;60317;48.880;-0.862;2022-08-18T07:46:30;100356.97;;;21.71;65.66
72359;BME280;60317;48.880;-0.862;2022-08-18T07:49:00;100348.88;;;21.71;65.53
72359;BME280;60317;48.880;-0.862;2022-08-18T07:51:38;100357.69;;;21.73;65.33
72359;BME280;60317;48.880;-0.862;2022-08-18T07:54:17;100362.19;;;21.73;65.55
72359;BME280;60317;48.880;-0.862;2022-08-18T07:57:12;100359.06;;;21.77;65.25
72359;BME280;60317;48.880;-0.862;2022-08-18T07:59:50;100359.91;;;21.78;65.35
72359;BME280;60317;48.880;-0.862;2022-08-18T08:02:30;100366.16;;;21.78;65.42
72359;BME280;60317;48.880;-0.862;2022-08-18T08:05:09;100371.81;;;21.75;65.35
72359;BME280;60317;48.880;-0.862;2022-08-18T08:07:44;100363.47;;;21.78;65.40
72359;BME280;60317;48.880;-0.862;2022-08-18T08:10:27;100359.06;;;21.77;65.45
72359;BME280;60317;48.880;-0.862;2022-08-18T08:13:10;100367.84;;;21.79;65.34
72359;BME280;60317;48.880;-0.862;2022-08-18T08:16:04;100369.56;;;21.80;65.34
72359;BME280;60317;48.880;-0.862;2022-08-18T08:18:42;100374.94;;;21.80;65.37
72359;BME280;60317;48.880;-0.862;2022-08-18T08:21:15;100377.75;;;21.79;65.43
72359;BME280;60317;48.880;-0.862;2022-08-18T08:23:49;100378.59;;;21.79;65.14
72359;BME280;60317;48.880;-0.862;2022-08-18T08:26:36;100384.84;;;21.80;65.25
72359;BME280;60317;48.880;-0.862;2022-08-18T08:29:17;100371.53;;;21.78;65.34
72359;BME280;60317;48.880;-0.862;2022-08-18T08:31:49;100370.53;;;21.79;65.21
72359;BME280;60317;48.880;-0.862;2022-08-18T08:34:21;100373.53;;;21.76;65.16
72359;BME280;60317;48.880;-0.862;2022-08-18T08:36:57;100375.50;;;21.64;65.79
72359;BME280;60317;48.880;-0.862;2022-08-18T08:39:34;100380.03;;;21.64;65.62
72359;BME280;60317;48.880;-0.862;2022-08-18T08:42:10;100383.28;;;21.58;65.73
72359;BME280;60317;48.880;-0.862;2022-08-18T08:45:03;100375.94;;;21.60;65.64
72359;BME280;60317;48.880;-0.862;2022-08-18T08:47:33;100384.97;;;21.68;65.21
72359;BME280;60317;48.880;-0.862;2022-08-18T08:50:07;100380.31;;;21.61;65.25
72359;BME280;60317;48.880;-0.862;2022-08-18T08:52:37;100377.34;;;21.64;65.29
72359;BME280;60317;48.880;-0.862;2022-08-18T08:55:10;100374.25;;;21.59;65.45
72359;BME280;60317;48.880;-0.862;2022-08-18T08:57:44;100376.63;;;21.62;65.23
72359;BME280;60317;48.880;-0.862;2022-08-18T09:00:13;100380.03;;;21.64;65.09
72359;BME280;60317;48.880;-0.862;2022-08-18T09:02:53;100384.97;;;21.68;64.88
72359;BME280;60317;48.880;-0.862;2022-08-18T09:05:26;100385.13;;;21.67;64.91
72359;BME280;60317;48.880;-0.862;2022-08-18T09:10:50;100381.88;;;21.63;65.02
72359;BME280;60317;48.880;-0.862;2022-08-18T09:13:42;100376.06;;;21.68;64.88
72359;BME280;60317;48.880;-0.862;2022-08-18T09:16:20;100384.97;;;21.68;64.64
72359;BME280;60317;48.880;-0.862;2022-08-18T09:19:09;100387.38;;;21.72;64.52
72359;BME280;60317;48.880;-0.862;2022-08-18T09:21:43;100383.69;;;21.73;64.43
72359;BME280;60317;48.880;-0.862;2022-08-18T09:24:21;100392.50;;;21.75;64.36
72359;BME280;60317;48.880;-0.862;2022-08-18T09:26:52;100387.94;;;21.75;64.32
72359;BME280;60317;48.880;-0.862;2022-08-18T09:29:24;100386.09;;;21.76;64.38
72359;BME280;60317;48.880;-0.862;2022-08-18T09:34:50;100385.97;;;21.77;64.17
72359;BME280;60317;48.880;-0.862;2022-08-18T09:37:25;100380.59;;;21.77;64.36
72359;BME280;60317;48.880;-0.862;2022-08-18T09:39:59;100385.97;;;21.77;64.23
72359;BME280;60317;48.880;-0.862;2022-08-18T09:42:40;100383.13;;;21.79;64.14
72359;BME280;60317;48.880;-0.862;2022-08-18T09:45:52;100376.06;;;21.78;64.16
72359;BME280;60317;48.880;-0.862;2022-08-18T09:48:24;100380.44;;;21.79;63.85
72359;BME280;60317;48.880;-0.862;2022-08-18T09:56:57;100376.63;;;21.81;63.82
72359;BME280;60317;48.880;-0.862;2022-08-18T09:59:55;100378.47;;;21.81;63.72
72359;BME280;60317;48.880;-0.862;2022-08-18T10:05:55;100382.72;;;21.83;63.73
72359;BME280;60317;48.880;-0.862;2022-08-18T10:08:37;100384.53;;;21.83;63.53
72359;BME280;60317;48.880;-0.862;2022-08-18T10:11:29;100386.38;;;21.82;63.58
72359;BME280;60317;48.880;-0.862;2022-08-18T10:14:12;100380.16;;;21.82;63.61
72359;BME280;60317;48.880;-0.862;2022-08-18T10:16:48;100390.63;;;21.85;63.35
72359;BME280;60317;48.880;-0.862;2022-08-18T10:19:48;100386.25;;;21.84;63.32
72359;BME280;60317;48.880;-0.862;2022-08-18T10:22:38;100399.56;;;21.85;63.56
72359;BME280;60317;48.880;-0.862;2022-08-18T10:25:06;100401.09;;;21.88;63.18
72359;BME280;60317;48.880;-0.862;2022-08-18T10:27:51;100394.72;;;21.89;63.30
72359;BME280;60317;48.880;-0.862;2022-08-18T10:36:39;100388.50;;;21.88;63.20
72359;BME280;60317;48.880;-0.862;2022-08-18T10:39:43;100377.75;;;21.88;63.17
72359;BME280;60317;48.880;-0.862;2022-08-18T10:42:13;100381.28;;;21.89;63.01
72359;BME280;60317;48.880;-0.862;2022-08-18T10:44:46;100386.53;;;21.90;63.20
72359;BME280;60317;48.880;-0.862;2022-08-18T10:47:22;100387.38;;;21.91;62.94
72359;BME280;60317;48.880;-0.862;2022-08-18T10:49:50;100400.81;;;21.91;63.00
72359;BME280;60317;48.880;-0.862;2022-08-18T10:52:29;100391.75;;;21.92;62.99
72359;BME280;60317;48.880;-0.862;2022-08-18T10:55:12;100383.69;;;21.92;62.99
72359;BME280;60317;48.880;-0.862;2022-08-18T10:57:58;100387.22;;;21.92;62.62
72359;BME280;60317;48.880;-0.862;2022-08-18T11:00:40;100395.16;;;21.94;62.68
72359;BME280;60317;48.880;-0.862;2022-08-18T11:03:16;100395.84;;;21.96;62.66
72359;BME280;60317;48.880;-0.862;2022-08-18T11:06:08;100384.25;;;21.96;62.54
72359;BME280;60317;48.880;-0.862;2022-08-18T11:08:49;100381.38;;;21.97;62.56
72359;BME280;60317;48.880;-0.862;2022-08-18T11:11:28;100382.09;;;21.99;62.56
72359;BME280;60317;48.880;-0.862;2022-08-18T11:14:16;100374.88;;;22.00;62.50
72359;BME280;60317;48.880;-0.862;2022-08-18T11:16:53;100373.03;;;22.00;62.72
72359;BME280;60317;48.880;-0.862;2022-08-18T11:19:24;100385.50;;;22.01;62.45
72359;BME280;60317;48.880;-0.862;2022-08-18T11:21:51;100383.78;;;22.00;62.16
72359;BME280;60317;48.880;-0.862;2022-08-18T11:24:20;100383.78;;;22.00;62.06
72359;BME280;60317;48.880;-0.862;2022-08-18T11:26:51;100374.59;;;22.03;62.11
72359;BME280;60317;48.880;-0.862;2022-08-18T11:29:23;100379.13;;;22.02;62.13
72359;BME280;60317;48.880;-0.862;2022-08-18T11:31:54;100381.66;;;22.04;62.25
72359;BME280;60317;48.880;-0.862;2022-08-18T11:34:30;100376.28;;;22.04;62.25
72359;BME280;60317;48.880;-0.862;2022-08-18T11:36:59;100369.06;;;22.04;62.19
72359;BME280;60317;48.880;-0.862;2022-08-18T11:39:26;100360.84;;;22.06;62.22
72359;BME280;60317;48.880;-0.862;2022-08-18T11:42:07;100353.59;;;22.06;61.98
72359;BME280;60317;48.880;-0.862;2022-08-18T11:44:52;100361.41;;;22.09;62.11
72359;BME280;60317;48.880;-0.862;2022-08-18T11:47:21;100353.16;;;22.11;61.72
72359;BME280;60317;48.880;-0.862;2022-08-18T11:50:11;100358.72;;;22.09;61.35
72359;BME280;60317;48.880;-0.862;2022-08-18T11:52:48;100361.41;;;22.09;61.33
72359;BME280;60317;48.880;-0.862;2022-08-18T11:55:31;100357.84;;;22.09;61.32
72359;BME280;60317;48.880;-0.862;2022-08-18T11:57:59;100355.84;;;22.11;61.30
72359;BME280;60317;48.880;-0.862;2022-08-18T12:00:52;100345.09;;;22.11;61.37
72359;BME280;60317;48.880;-0.862;2022-08-18T12:03:30;100354.03;;;22.11;61.30
72359;BME280;60317;48.880;-0.862;2022-08-18T12:05:58;100356.56;;;22.13;61.33
72359;BME280;60317;48.880;-0.862;2022-08-18T12:08:31;100357.31;;;22.15;61.16
72359;BME280;60317;48.880;-0.862;2022-08-18T12:11:21;100357.31;;;22.15;61.11
72359;BME280;60317;48.880;-0.862;2022-08-18T12:14:01;100355.47;;;22.15;60.94
72359;BME280;60317;48.880;-0.862;2022-08-18T12:16:48;100360.69;;;22.17;60.75
72359;BME280;60317;48.880;-0.862;2022-08-18T12:19:16;100364.22;;;22.18;60.71
72359;BME280;60317;48.880;-0.862;2022-08-18T12:21:50;100361.41;;;22.19;60.78
72359;BME280;60317;48.880;-0.862;2022-08-18T12:24:20;100370.31;;;22.20;61.41
72359;BME280;60317;48.880;-0.862;2022-08-18T12:26:56;100365.78;;;22.20;61.46
72359;BME280;60317;48.880;-0.862;2022-08-18T12:29:27;100366.63;;;22.21;61.79
72359;BME280;60317;48.880;-0.862;2022-08-18T12:32:09;100363.81;;;22.22;61.52
72359;BME280;60317;48.880;-0.862;2022-08-18T12:34:56;100369.88;;;22.24;61.75
72359;BME280;60317;48.880;-0.862;2022-08-18T12:37:29;100379.63;;;22.25;61.69
72359;BME280;60317;48.880;-0.862;2022-08-18T12:40:15;100381.47;;;22.25;61.92
72359;BME280;60317;48.880;-0.862;2022-08-18T12:42:42;100381.34;;;22.26;61.96
72359;BME280;60317;48.880;-0.862;2022-08-18T12:45:14;100372.28;;;22.27;62.00
72359;BME280;60317;48.880;-0.862;2022-08-18T12:47:41;100381.06;;;22.29;62.11
72359;BME280;60317;48.880;-0.862;2022-08-18T12:50:08;100380.06;;;22.30;62.21
72359;BME280;60317;48.880;-0.862;2022-08-18T12:52:36;100389.81;;;22.31;62.38
72359;BME280;60317;48.880;-0.862;2022-08-18T12:55:05;100388.13;;;22.30;62.21
72359;BME280;60317;48.880;-0.862;2022-08-18T12:57:31;100388.13;;;22.30;61.99
72359;BME280;60317;48.880;-0.862;2022-08-18T13:00:19;100387.13;;;22.31;61.45
72359;BME280;60317;48.880;-0.862;2022-08-18T13:02:53;100388.13;;;22.30;61.48
72359;BME280;60317;48.880;-0.862;2022-08-18T13:05:20;100391.53;;;22.32;61.71
72359;BME280;60317;48.880;-0.862;2022-08-18T13:07:56;100391.53;;;22.32;61.67
72359;BME280;60317;48.880;-0.862;2022-08-18T13:10:23;100383.47;;;22.32;61.44
72359;BME280;60317;48.880;-0.862;2022-08-18T13:13:10;100393.22;;;22.33;61.45
72359;BME280;60317;48.880;-0.862;2022-08-18T13:15:37;100386.84;;;22.34;61.32
72359;BME280;60317;48.880;-0.862;2022-08-18T13:18:10;100388.69;;;22.34;61.36
72359;BME280;60317;48.880;-0.862;2022-08-18T13:20:40;100392.38;;;22.33;61.46
72359;BME280;60317;48.880;-0.862;2022-08-18T13:23:10;100392.22;;;22.34;61.66
72359;BME280;60317;48.880;-0.862;2022-08-18T13:25:37;100396.59;;;22.35;61.51
72359;BME280;60317;48.880;-0.862;2022-08-18T13:28:04;100397.47;;;22.36;61.32
72359;BME280;60317;48.880;-0.862;2022-08-18T13:30:31;100392.94;;;22.36;61.47